sensor_id;sensor_type;location;lat;lon;timestamp;P1;durP1;ratioP1;P2;durP2;ratioP2
41556;SDS011;27720;51.992;5.890;2022-10-26T00:00:40;4.65;;;2.95;;
41556;SDS011;27720;51.992;5.890;2022-10-26T00:03:05;6.35;;;3.45;;
41556;SDS011;27720;51.992;5.890;2022-10-26T00:05:32;7.25;;;3.50;;
41556;SDS011;27720;51.992;5.890;2022-10-26T00:07:58;5.22;;;3.25;;
41556;SDS011;27720;51.992;5.890;2022-10-26T00:10:24;6.93;;;3.70;;
41556;SDS011;27720;51.992;5.890;2022-10-26T00:12:51;6.25;;;3.38;;
41556;SDS011;27720;51.992;5.890;2022-10-26T00:15:18;5.78;;;3.33;;
41556;SDS011;27720;51.992;5.890;2022-10-26T00:17:46;6.85;;;2.97;;
41556;SDS011;27720;51.992;5.890;2022-10-26T00:20:13;5.15;;;3.10;;
41556;SDS011;27720;51.992;5.890;2022-10-26T00:22:39;7.65;;;3.00;;
41556;SDS011;27720;51.992;5.890;2022-10-26T00:25:05;6.75;;;2.58;;
41556;SDS011;27720;51.992;5.890;2022-10-26T00:27:34;7.43;;;2.92;;
41556;SDS011;27720;51.992;5.890;2022-10-26T00:30:00;5.45;;;3.25;;
41556;SDS011;27720;51.992;5.890;2022-10-26T00:32:26;7.05;;;2.78;;
41556;SDS011;27720;51.992;5.890;2022-10-26T00:34:52;5.70;;;3.67;;
41556;SDS011;27720;51.992;5.890;2022-10-26T00:37:18;8.95;;;2.90;;
41556;SDS011;27720;51.992;5.890;2022-10-26T00:39:44;7.78;;;3.20;;
41556;SDS011;27720;51.992;5.890;2022-10-26T00:42:15;4.45;;;2.75;;
41556;SDS011;27720;51.992;5.890;2022-10-26T00:47:13;4.80;;;2.90;;
41556;SDS011;27720;51.992;5.890;2022-10-26T00:49:50;4.95;;;2.95;;
41556;SDS011;27720;51.992;5.890;2022-10-26T00:52:18;3.95;;;2.78;;
41556;SDS011;27720;51.992;5.890;2022-10-26T00:54:45;10.63;;;2.67;;
41556;SDS011;27720;51.992;5.890;2022-10-26T00:57:11;3.13;;;2.50;;
41556;SDS011;27720;51.992;5.890;2022-10-26T00:59:40;5.45;;;3.03;;
41556;SDS011;27720;51.992;5.890;2022-10-26T01:02:07;6.18;;;2.88;;
41556;SDS011;27720;51.992;5.890;2022-10-26T01:04:33;5.97;;;3.40;;
41556;SDS011;27720;51.992;5.890;2022-10-26T01:07:00;3.78;;;2.53;;
41556;SDS011;27720;51.992;5.890;2022-10-26T01:09:28;6.78;;;2.42;;
41556;SDS011;27720;51.992;5.890;2022-10-26T01:11:54;4.10;;;2.50;;
41556;SDS011;27720;51.992;5.890;2022-10-26T01:14:20;4.80;;;2.75;;
41556;SDS011;27720;51.992;5.890;2022-10-26T01:16:55;5.72;;;2.50;;
41556;SDS011;27720;51.992;5.890;2022-10-26T01:22:19;5.18;;;2.80;;
41556;SDS011;27720;51.992;5.890;2022-10-26T01:27:54;6.22;;;3.00;;
41556;SDS011;27720;51.992;5.890;2022-10-26T01:43:29;5.15;;;2.78;;
41556;SDS011;27720;51.992;5.890;2022-10-26T01:45:57;3.70;;;2.10;;
41556;SDS011;27720;51.992;5.890;2022-10-26T01:48:26;4.78;;;2.92;;
41556;SDS011;27720;51.992;5.890;2022-10-26T01:50:53;6.35;;;3.05;;
41556;SDS011;27720;51.992;5.890;2022-10-26T01:53:21;7.45;;;2.58;;
41556;SDS011;27720;51.992;5.890;2022-10-26T01:55:50;6.32;;;2.53;;
41556;SDS011;27720;51.992;5.890;2022-10-26T02:09:24;5.47;;;2.83;;
41556;SDS011;27720;51.992;5.890;2022-10-26T02:11:59;9.90;;;2.65;;
41556;SDS011;27720;51.992;5.890;2022-10-26T02:14:44;4.03;;;2.63;;
41556;SDS011;27720;51.992;5.890;2022-10-26T02:20:24;9.00;;;2.20;;
41556;SDS011;27720;51.992;5.890;2022-10-26T02:22:55;6.55;;;2.75;;
41556;SDS011;27720;51.992;5.890;2022-10-26T02:25:26;5.90;;;2.83;;
41556;SDS011;27720;51.992;5.890;2022-10-26T02:28:00;3.75;;;2.20;;
41556;SDS011;27720;51.992;5.890;2022-10-26T02:30:30;4.80;;;2.88;;
41556;SDS011;27720;51.992;5.890;2022-10-26T02:32:57;4.70;;;2.83;;
41556;SDS011;27720;51.992;5.890;2022-10-26T02:35:24;4.35;;;2.60;;
41556;SDS011;27720;51.992;5.890;2022-10-26T02:37:53;4.32;;;2.45;;
41556;SDS011;27720;51.992;5.890;2022-10-26T02:40:23;4.97;;;2.55;;
41556;SDS011;27720;51.992;5.890;2022-10-26T02:42:51;5.07;;;2.73;;
41556;SDS011;27720;51.992;5.890;2022-10-26T02:45:20;5.45;;;2.85;;
41556;SDS011;27720;51.992;5.890;2022-10-26T02:47:52;6.60;;;2.60;;
41556;SDS011;27720;51.992;5.890;2022-10-26T02:50:20;5.28;;;2.60;;
41556;SDS011;27720;51.992;5.890;2022-10-26T02:55:47;3.90;;;2.13;;
41556;SDS011;27720;51.992;5.890;2022-10-26T02:58:22;3.88;;;2.55;;
41556;SDS011;27720;51.992;5.890;2022-10-26T03:00:53;5.88;;;2.85;;
41556;SDS011;27720;51.992;5.890;2022-10-26T03:03:20;3.90;;;2.45;;
41556;SDS011;27720;51.992;5.890;2022-10-26T03:05:46;6.45;;;2.65;;
41556;SDS011;27720;51.992;5.890;2022-10-26T03:08:12;7.30;;;2.78;;
41556;SDS011;27720;51.992;5.890;2022-10-26T03:10:41;5.03;;;2.78;;
41556;SDS011;27720;51.992;5.890;2022-10-26T03:13:08;5.00;;;2.92;;
41556;SDS011;27720;51.992;5.890;2022-10-26T03:15:35;8.23;;;3.17;;
41556;SDS011;27720;51.992;5.890;2022-10-26T03:18:01;4.18;;;2.88;;
41556;SDS011;27720;51.992;5.890;2022-10-26T03:20:27;5.85;;;2.67;;
41556;SDS011;27720;51.992;5.890;2022-10-26T03:22:53;7.72;;;3.15;;
41556;SDS011;27720;51.992;5.890;2022-10-26T03:25:21;4.25;;;2.65;;
41556;SDS011;27720;51.992;5.890;2022-10-26T03:27:59;8.73;;;3.00;;
41556;SDS011;27720;51.992;5.890;2022-10-26T03:30:26;6.22;;;2.70;;
41556;SDS011;27720;51.992;5.890;2022-10-26T03:32:53;11.10;;;3.38;;
41556;SDS011;27720;51.992;5.890;2022-10-26T03:35:19;4.95;;;2.30;;
41556;SDS011;27720;51.992;5.890;2022-10-26T03:37:44;4.25;;;2.60;;
41556;SDS011;27720;51.992;5.890;2022-10-26T03:40:10;3.70;;;2.60;;
41556;SDS011;27720;51.992;5.890;2022-10-26T03:42:36;2.80;;;2.22;;
41556;SDS011;27720;51.992;5.890;2022-10-26T03:45:03;6.10;;;2.10;;
41556;SDS011;27720;51.992;5.890;2022-10-26T03:47:29;9.20;;;2.88;;
41556;SDS011;27720;51.992;5.890;2022-10-26T03:49:55;4.95;;;2.83;;
41556;SDS011;27720;51.992;5.890;2022-10-26T03:52:21;5.30;;;2.58;;
41556;SDS011;27720;51.992;5.890;2022-10-26T03:54:48;8.00;;;2.90;;
41556;SDS011;27720;51.992;5.890;2022-10-26T03:57:14;5.10;;;2.80;;
41556;SDS011;27720;51.992;5.890;2022-10-26T03:59:40;6.50;;;2.58;;
41556;SDS011;27720;51.992;5.890;2022-10-26T04:02:06;5.57;;;2.90;;
41556;SDS011;27720;51.992;5.890;2022-10-26T04:04:32;4.88;;;2.33;;
41556;SDS011;27720;51.992;5.890;2022-10-26T04:06:58;5.15;;;2.75;;
41556;SDS011;27720;51.992;5.890;2022-10-26T04:09:23;5.35;;;2.85;;
41556;SDS011;27720;51.992;5.890;2022-10-26T04:11:49;4.88;;;2.35;;
41556;SDS011;27720;51.992;5.890;2022-10-26T04:14:15;7.28;;;2.30;;
41556;SDS011;27720;51.992;5.890;2022-10-26T04:16:41;6.22;;;1.83;;
41556;SDS011;27720;51.992;5.890;2022-10-26T04:19:06;7.90;;;3.08;;
41556;SDS011;27720;51.992;5.890;2022-10-26T04:21:32;5.28;;;3.20;;
41556;SDS011;27720;51.992;5.890;2022-10-26T04:23:59;5.10;;;2.58;;
41556;SDS011;27720;51.992;5.890;2022-10-26T04:26:26;9.82;;;3.38;;
41556;SDS011;27720;51.992;5.890;2022-10-26T04:28:52;5.97;;;2.75;;
41556;SDS011;27720;51.992;5.890;2022-10-26T04:31:17;6.00;;;2.80;;
41556;SDS011;27720;51.992;5.890;2022-10-26T04:33:43;4.75;;;2.63;;
41556;SDS011;27720;51.992;5.890;2022-10-26T04:36:09;4.72;;;2.22;;
41556;SDS011;27720;51.992;5.890;2022-10-26T04:38:35;3.92;;;2.83;;
41556;SDS011;27720;51.992;5.890;2022-10-26T04:41:01;6.28;;;2.80;;
41556;SDS011;27720;51.992;5.890;2022-10-26T04:43:27;3.65;;;2.35;;
41556;SDS011;27720;51.992;5.890;2022-10-26T04:45:56;8.55;;;2.83;;
41556;SDS011;27720;51.992;5.890;2022-10-26T04:48:22;6.18;;;2.70;;
41556;SDS011;27720;51.992;5.890;2022-10-26T04:50:48;6.18;;;2.45;;
41556;SDS011;27720;51.992;5.890;2022-10-26T04:53:14;9.60;;;2.50;;
41556;SDS011;27720;51.992;5.890;2022-10-26T04:55:39;4.15;;;2.38;;
41556;SDS011;27720;51.992;5.890;2022-10-26T04:58:05;3.85;;;2.25;;
41556;SDS011;27720;51.992;5.890;2022-10-26T05:00:32;8.38;;;2.53;;
41556;SDS011;27720;51.992;5.890;2022-10-26T05:02:59;4.00;;;2.42;;
41556;SDS011;27720;51.992;5.890;2022-10-26T05:05:32;8.32;;;2.67;;
41556;SDS011;27720;51.992;5.890;2022-10-26T05:07:59;5.20;;;2.70;;
41556;SDS011;27720;51.992;5.890;2022-10-26T05:10:25;5.60;;;2.40;;
41556;SDS011;27720;51.992;5.890;2022-10-26T05:12:54;6.10;;;2.30;;
41556;SDS011;27720;51.992;5.890;2022-10-26T05:15:21;6.18;;;2.25;;
41556;SDS011;27720;51.992;5.890;2022-10-26T05:17:53;9.80;;;2.50;;
41556;SDS011;27720;51.992;5.890;2022-10-26T05:20:20;6.72;;;2.92;;
41556;SDS011;27720;51.992;5.890;2022-10-26T05:22:52;4.25;;;2.20;;
41556;SDS011;27720;51.992;5.890;2022-10-26T05:25:18;5.82;;;2.20;;
41556;SDS011;27720;51.992;5.890;2022-10-26T05:27:44;5.15;;;2.45;;
41556;SDS011;27720;51.992;5.890;2022-10-26T05:30:10;6.22;;;2.22;;
41556;SDS011;27720;51.992;5.890;2022-10-26T05:32:36;4.82;;;2.30;;
41556;SDS011;27720;51.992;5.890;2022-10-26T05:35:02;3.70;;;2.60;;
41556;SDS011;27720;51.992;5.890;2022-10-26T05:37:28;5.07;;;2.33;;
41556;SDS011;27720;51.992;5.890;2022-10-26T05:39:54;5.03;;;2.40;;
41556;SDS011;27720;51.992;5.890;2022-10-26T05:42:20;6.65;;;2.80;;
41556;SDS011;27720;51.992;5.890;2022-10-26T05:44:46;4.57;;;2.22;;
41556;SDS011;27720;51.992;5.890;2022-10-26T05:47:12;5.68;;;2.28;;
41556;SDS011;27720;51.992;5.890;2022-10-26T05:49:38;5.68;;;2.65;;
41556;SDS011;27720;51.992;5.890;2022-10-26T05:52:03;4.38;;;2.25;;
41556;SDS011;27720;51.992;5.890;2022-10-26T05:54:29;5.25;;;2.45;;
41556;SDS011;27720;51.992;5.890;2022-10-26T05:56:55;5.07;;;2.38;;
41556;SDS011;27720;51.992;5.890;2022-10-26T05:59:21;6.13;;;2.88;;
41556;SDS011;27720;51.992;5.890;2022-10-26T06:04:36;7.95;;;2.53;;
41556;SDS011;27720;51.992;5.890;2022-10-26T06:07:11;3.83;;;2.28;;
41556;SDS011;27720;51.992;5.890;2022-10-26T06:09:38;3.13;;;2.22;;
41556;SDS011;27720;51.992;5.890;2022-10-26T06:12:05;6.18;;;2.33;;
41556;SDS011;27720;51.992;5.890;2022-10-26T06:14:32;5.38;;;2.55;;
41556;SDS011;27720;51.992;5.890;2022-10-26T06:20:08;3.55;;;2.45;;
41556;SDS011;27720;51.992;5.890;2022-10-26T06:25:26;4.80;;;2.33;;
41556;SDS011;27720;51.992;5.890;2022-10-26T06:28:10;8.73;;;2.55;;
41556;SDS011;27720;51.992;5.890;2022-10-26T06:30:42;3.63;;;2.08;;
41556;SDS011;27720;51.992;5.890;2022-10-26T06:33:08;3.67;;;1.90;;
41556;SDS011;27720;51.992;5.890;2022-10-26T06:38:09;5.32;;;2.05;;
41556;SDS011;27720;51.992;5.890;2022-10-26T06:40:41;4.47;;;2.47;;
41556;SDS011;27720;51.992;5.890;2022-10-26T06:43:19;2.40;;;1.90;;
41556;SDS011;27720;51.992;5.890;2022-10-26T06:45:47;3.45;;;2.00;;
41556;SDS011;27720;51.992;5.890;2022-10-26T06:48:32;4.07;;;1.83;;
41556;SDS011;27720;51.992;5.890;2022-10-26T06:51:08;6.60;;;1.98;;
41556;SDS011;27720;51.992;5.890;2022-10-26T06:56:11;3.15;;;1.73;;
41556;SDS011;27720;51.992;5.890;2022-10-26T06:58:38;11.52;;;2.13;;
41556;SDS011;27720;51.992;5.890;2022-10-26T07:01:05;4.43;;;2.35;;
41556;SDS011;27720;51.992;5.890;2022-10-26T07:03:34;6.07;;;2.60;;
41556;SDS011;27720;51.992;5.890;2022-10-26T07:06:00;6.18;;;1.95;;
41556;SDS011;27720;51.992;5.890;2022-10-26T07:08:26;3.60;;;2.30;;
41556;SDS011;27720;51.992;5.890;2022-10-26T07:10:51;3.78;;;2.65;;
41556;SDS011;27720;51.992;5.890;2022-10-26T07:13:17;3.20;;;2.00;;
41556;SDS011;27720;51.992;5.890;2022-10-26T07:15:43;6.15;;;2.42;;
41556;SDS011;27720;51.992;5.890;2022-10-26T07:18:09;6.90;;;1.88;;
41556;SDS011;27720;51.992;5.890;2022-10-26T07:20:38;4.43;;;2.45;;
41556;SDS011;27720;51.992;5.890;2022-10-26T07:23:05;4.22;;;2.08;;
41556;SDS011;27720;51.992;5.890;2022-10-26T07:25:32;6.57;;;2.50;;
41556;SDS011;27720;51.992;5.890;2022-10-26T07:27:59;3.35;;;1.92;;
41556;SDS011;27720;51.992;5.890;2022-10-26T07:30:26;4.28;;;2.15;;
41556;SDS011;27720;51.992;5.890;2022-10-26T07:33:26;4.63;;;2.10;;
41556;SDS011;27720;51.992;5.890;2022-10-26T07:35:45;3.95;;;2.20;;
41556;SDS011;27720;51.992;5.890;2022-10-26T07:38:11;6.05;;;2.47;;
41556;SDS011;27720;51.992;5.890;2022-10-26T07:40:37;3.38;;;1.92;;
41556;SDS011;27720;51.992;5.890;2022-10-26T07:43:03;6.78;;;2.22;;
41556;SDS011;27720;51.992;5.890;2022-10-26T07:45:29;8.02;;;2.22;;
41556;SDS011;27720;51.992;5.890;2022-10-26T07:47:55;5.18;;;2.35;;
41556;SDS011;27720;51.992;5.890;2022-10-26T07:50:21;4.15;;;2.13;;
41556;SDS011;27720;51.992;5.890;2022-10-26T07:52:48;7.10;;;2.60;;
41556;SDS011;27720;51.992;5.890;2022-10-26T07:55:14;6.18;;;2.17;;
41556;SDS011;27720;51.992;5.890;2022-10-26T07:57:43;6.45;;;2.60;;
41556;SDS011;27720;51.992;5.890;2022-10-26T08:00:09;5.63;;;2.28;;
41556;SDS011;27720;51.992;5.890;2022-10-26T08:02:35;5.32;;;1.70;;
41556;SDS011;27720;51.992;5.890;2022-10-26T08:05:04;7.30;;;2.22;;
41556;SDS011;27720;51.992;5.890;2022-10-26T08:07:30;5.50;;;2.22;;
41556;SDS011;27720;51.992;5.890;2022-10-26T08:09:56;3.33;;;2.10;;
41556;SDS011;27720;51.992;5.890;2022-10-26T08:12:22;5.32;;;2.25;;
41556;SDS011;27720;51.992;5.890;2022-10-26T08:14:47;5.65;;;2.90;;
41556;SDS011;27720;51.992;5.890;2022-10-26T08:17:14;4.70;;;2.17;;
41556;SDS011;27720;51.992;5.890;2022-10-26T08:19:39;4.45;;;2.28;;
41556;SDS011;27720;51.992;5.890;2022-10-26T08:22:05;5.50;;;2.30;;
41556;SDS011;27720;51.992;5.890;2022-10-26T08:24:31;3.58;;;1.90;;
41556;SDS011;27720;51.992;5.890;2022-10-26T08:26:56;5.90;;;2.30;;
41556;SDS011;27720;51.992;5.890;2022-10-26T08:29:22;10.57;;;2.38;;
41556;SDS011;27720;51.992;5.890;2022-10-26T08:31:48;2.55;;;1.55;;
41556;SDS011;27720;51.992;5.890;2022-10-26T08:34:14;2.35;;;1.70;;
41556;SDS011;27720;51.992;5.890;2022-10-26T08:36:40;5.55;;;1.85;;
41556;SDS011;27720;51.992;5.890;2022-10-26T08:39:05;3.47;;;2.17;;
41556;SDS011;27720;51.992;5.890;2022-10-26T08:41:37;4.88;;;1.50;;
41556;SDS011;27720;51.992;5.890;2022-10-26T08:44:12;3.75;;;2.15;;
41556;SDS011;27720;51.992;5.890;2022-10-26T08:47:20;3.83;;;1.88;;
41556;SDS011;27720;51.992;5.890;2022-10-26T08:52:36;2.95;;;1.52;;
41556;SDS011;27720;51.992;5.890;2022-10-26T08:55:30;1.80;;;1.20;;
41556;SDS011;27720;51.992;5.890;2022-10-26T08:58:02;3.20;;;1.75;;
41556;SDS011;27720;51.992;5.890;2022-10-26T09:00:32;4.32;;;1.40;;
41556;SDS011;27720;51.992;5.890;2022-10-26T09:02:57;3.28;;;1.38;;
41556;SDS011;27720;51.992;5.890;2022-10-26T09:05:37;1.95;;;1.20;;
41556;SDS011;27720;51.992;5.890;2022-10-26T09:08:16;6.07;;;1.60;;
41556;SDS011;27720;51.992;5.890;2022-10-26T09:10:54;4.07;;;1.30;;
41556;SDS011;27720;51.992;5.890;2022-10-26T09:19:00;2.28;;;1.25;;
41556;SDS011;27720;51.992;5.890;2022-10-26T09:24:31;7.50;;;1.65;;
41556;SDS011;27720;51.992;5.890;2022-10-26T09:27:18;2.95;;;1.73;;
41556;SDS011;27720;51.992;5.890;2022-10-26T09:29:55;4.28;;;2.00;;
41556;SDS011;27720;51.992;5.890;2022-10-26T09:32:26;4.25;;;1.85;;
41556;SDS011;27720;51.992;5.890;2022-10-26T09:35:00;4.13;;;1.85;;
41556;SDS011;27720;51.992;5.890;2022-10-26T09:37:39;7.95;;;2.58;;
41556;SDS011;27720;51.992;5.890;2022-10-26T09:40:19;3.97;;;1.67;;
41556;SDS011;27720;51.992;5.890;2022-10-26T09:43:00;3.60;;;1.95;;
41556;SDS011;27720;51.992;5.890;2022-10-26T09:45:40;8.73;;;2.53;;
41556;SDS011;27720;51.992;5.890;2022-10-26T09:48:13;6.18;;;1.75;;
41556;SDS011;27720;51.992;5.890;2022-10-26T09:50:47;4.50;;;1.95;;
41556;SDS011;27720;51.992;5.890;2022-10-26T09:53:14;5.40;;;1.60;;
41556;SDS011;27720;51.992;5.890;2022-10-26T09:55:41;4.57;;;1.77;;
41556;SDS011;27720;51.992;5.890;2022-10-26T09:58:20;7.45;;;2.50;;
41556;SDS011;27720;51.992;5.890;2022-10-26T10:00:51;3.97;;;2.28;;
41556;SDS011;27720;51.992;5.890;2022-10-26T10:03:18;3.85;;;2.50;;
41556;SDS011;27720;51.992;5.890;2022-10-26T10:05:48;7.30;;;2.53;;
41556;SDS011;27720;51.992;5.890;2022-10-26T10:08:21;5.00;;;2.50;;
41556;SDS011;27720;51.992;5.890;2022-10-26T10:10:55;4.32;;;1.65;;
41556;SDS011;27720;51.992;5.890;2022-10-26T10:13:22;4.32;;;2.08;;
41556;SDS011;27720;51.992;5.890;2022-10-26T10:15:50;3.15;;;1.90;;
41556;SDS011;27720;51.992;5.890;2022-10-26T10:18:22;3.58;;;2.20;;
41556;SDS011;27720;51.992;5.890;2022-10-26T10:20:50;4.20;;;2.47;;
41556;SDS011;27720;51.992;5.890;2022-10-26T10:23:25;3.92;;;1.75;;
41556;SDS011;27720;51.992;5.890;2022-10-26T10:26:11;6.78;;;2.15;;
41556;SDS011;27720;51.992;5.890;2022-10-26T10:28:37;2.83;;;1.50;;
41556;SDS011;27720;51.992;5.890;2022-10-26T10:31:16;4.72;;;2.05;;
41556;SDS011;27720;51.992;5.890;2022-10-26T10:33:47;8.88;;;1.80;;
41556;SDS011;27720;51.992;5.890;2022-10-26T10:36:17;4.03;;;1.42;;
41556;SDS011;27720;51.992;5.890;2022-10-26T10:38:46;5.00;;;1.60;;
41556;SDS011;27720;51.992;5.890;2022-10-26T10:41:18;4.05;;;2.00;;
41556;SDS011;27720;51.992;5.890;2022-10-26T10:43:46;5.38;;;1.85;;
41556;SDS011;27720;51.992;5.890;2022-10-26T10:46:18;5.55;;;2.58;;
41556;SDS011;27720;51.992;5.890;2022-10-26T10:48:49;4.97;;;1.45;;
41556;SDS011;27720;51.992;5.890;2022-10-26T10:51:39;4.45;;;2.33;;
41556;SDS011;27720;51.992;5.890;2022-10-26T10:54:05;2.95;;;1.83;;
41556;SDS011;27720;51.992;5.890;2022-10-26T10:56:56;5.10;;;2.00;;
41556;SDS011;27720;51.992;5.890;2022-10-26T11:07:43;5.03;;;1.58;;
41556;SDS011;27720;51.992;5.890;2022-10-26T11:10:14;3.47;;;1.70;;
41556;SDS011;27720;51.992;5.890;2022-10-26T11:12:45;3.70;;;1.42;;
41556;SDS011;27720;51.992;5.890;2022-10-26T11:15:19;3.08;;;1.30;;
41556;SDS011;27720;51.992;5.890;2022-10-26T11:17:50;4.32;;;1.38;;
41556;SDS011;27720;51.992;5.890;2022-10-26T11:20:37;8.88;;;1.95;;
41556;SDS011;27720;51.992;5.890;2022-10-26T11:23:11;3.88;;;1.75;;
41556;SDS011;27720;51.992;5.890;2022-10-26T11:31:12;4.60;;;2.30;;
41556;SDS011;27720;51.992;5.890;2022-10-26T11:33:44;4.57;;;2.22;;
41556;SDS011;27720;51.992;5.890;2022-10-26T11:36:16;5.95;;;1.80;;
41556;SDS011;27720;51.992;5.890;2022-10-26T11:46:48;4.00;;;1.38;;
41556;SDS011;27720;51.992;5.890;2022-10-26T11:49:23;5.28;;;1.65;;
41556;SDS011;27720;51.992;5.890;2022-10-26T11:54:39;3.30;;;1.70;;
41556;SDS011;27720;51.992;5.890;2022-10-26T11:57:11;5.90;;;1.83;;
41556;SDS011;27720;51.992;5.890;2022-10-26T11:59:42;3.58;;;1.17;;
41556;SDS011;27720;51.992;5.890;2022-10-26T12:02:20;3.42;;;2.00;;
41556;SDS011;27720;51.992;5.890;2022-10-26T12:04:49;3.28;;;1.75;;
41556;SDS011;27720;51.992;5.890;2022-10-26T12:07:28;5.72;;;1.40;;
41556;SDS011;27720;51.992;5.890;2022-10-26T12:09:56;4.55;;;1.38;;
41556;SDS011;27720;51.992;5.890;2022-10-26T12:12:27;5.18;;;1.60;;
41556;SDS011;27720;51.992;5.890;2022-10-26T12:17:50;3.75;;;1.30;;
41556;SDS011;27720;51.992;5.890;2022-10-26T12:23:16;5.93;;;1.90;;
41556;SDS011;27720;51.992;5.890;2022-10-26T12:25:43;3.92;;;1.48;;
41556;SDS011;27720;51.992;5.890;2022-10-26T12:33:56;4.95;;;1.70;;
41556;SDS011;27720;51.992;5.890;2022-10-26T12:39:30;5.75;;;1.50;;
41556;SDS011;27720;51.992;5.890;2022-10-26T12:47:58;2.23;;;1.20;;
41556;SDS011;27720;51.992;5.890;2022-10-26T13:00:16;5.65;;;1.55;;
41556;SDS011;27720;51.992;5.890;2022-10-26T13:02:49;3.72;;;1.90;;
41556;SDS011;27720;51.992;5.890;2022-10-26T13:08:28;3.88;;;2.10;;
41556;SDS011;27720;51.992;5.890;2022-10-26T13:11:15;3.92;;;1.98;;
41556;SDS011;27720;51.992;5.890;2022-10-26T13:13:42;6.95;;;2.13;;
41556;SDS011;27720;51.992;5.890;2022-10-26T13:16:09;2.85;;;1.60;;
41556;SDS011;27720;51.992;5.890;2022-10-26T13:18:41;4.18;;;2.30;;
41556;SDS011;27720;51.992;5.890;2022-10-26T13:21:14;4.03;;;1.60;;
41556;SDS011;27720;51.992;5.890;2022-10-26T13:23:43;5.07;;;1.45;;
41556;SDS011;27720;51.992;5.890;2022-10-26T13:26:29;2.20;;;1.60;;
41556;SDS011;27720;51.992;5.890;2022-10-26T13:29:00;1.73;;;1.23;;
41556;SDS011;27720;51.992;5.890;2022-10-26T13:36:40;2.30;;;1.88;;
41556;SDS011;27720;51.992;5.890;2022-10-26T13:39:22;4.13;;;2.03;;
41556;SDS011;27720;51.992;5.890;2022-10-26T13:41:57;3.60;;;2.28;;
41556;SDS011;27720;51.992;5.890;2022-10-26T13:44:28;2.58;;;1.98;;
41556;SDS011;27720;51.992;5.890;2022-10-26T13:47:24;4.45;;;1.90;;
41556;SDS011;27720;51.992;5.890;2022-10-26T13:49:55;2.60;;;1.70;;
41556;SDS011;27720;51.992;5.890;2022-10-26T13:52:37;4.82;;;2.97;;
41556;SDS011;27720;51.992;5.890;2022-10-26T13:55:08;4.55;;;2.50;;
41556;SDS011;27720;51.992;5.890;2022-10-26T13:57:41;4.32;;;2.30;;
41556;SDS011;27720;51.992;5.890;2022-10-26T14:00:16;2.65;;;2.05;;
41556;SDS011;27720;51.992;5.890;2022-10-26T14:02:45;4.50;;;2.70;;
41556;SDS011;27720;51.992;5.890;2022-10-26T14:05:12;3.75;;;2.22;;
41556;SDS011;27720;51.992;5.890;2022-10-26T14:07:41;5.05;;;2.92;;
41556;SDS011;27720;51.992;5.890;2022-10-26T14:13:05;2.65;;;2.20;;
41556;SDS011;27720;51.992;5.890;2022-10-26T14:15:33;2.42;;;2.20;;
41556;SDS011;27720;51.992;5.890;2022-10-26T14:18:00;3.35;;;2.40;;
41556;SDS011;27720;51.992;5.890;2022-10-26T14:20:28;4.65;;;2.67;;
41556;SDS011;27720;51.992;5.890;2022-10-26T14:22:55;3.83;;;2.17;;
41556;SDS011;27720;51.992;5.890;2022-10-26T14:25:22;4.38;;;2.08;;
41556;SDS011;27720;51.992;5.890;2022-10-26T14:27:53;5.18;;;2.28;;
41556;SDS011;27720;51.992;5.890;2022-10-26T14:30:26;2.47;;;2.10;;
41556;SDS011;27720;51.992;5.890;2022-10-26T14:32:54;1.98;;;1.42;;
41556;SDS011;27720;51.992;5.890;2022-10-26T14:35:24;3.22;;;2.00;;
41556;SDS011;27720;51.992;5.890;2022-10-26T14:38:01;2.50;;;1.48;;
41556;SDS011;27720;51.992;5.890;2022-10-26T14:40:31;7.00;;;1.75;;
41556;SDS011;27720;51.992;5.890;2022-10-26T14:43:00;1.90;;;1.60;;
41556;SDS011;27720;51.992;5.890;2022-10-26T14:45:34;2.38;;;1.67;;
41556;SDS011;27720;51.992;5.890;2022-10-26T14:48:03;4.13;;;1.50;;
41556;SDS011;27720;51.992;5.890;2022-10-26T14:50:31;2.72;;;1.45;;
41556;SDS011;27720;51.992;5.890;2022-10-26T14:53:03;3.50;;;1.60;;
41556;SDS011;27720;51.992;5.890;2022-10-26T14:55:47;3.95;;;1.42;;
41556;SDS011;27720;51.992;5.890;2022-10-26T14:58:16;1.55;;;1.45;;
41556;SDS011;27720;51.992;5.890;2022-10-26T15:07:32;2.83;;;1.55;;
41556;SDS011;27720;51.992;5.890;2022-10-26T15:09:48;2.05;;;1.23;;
41556;SDS011;27720;51.992;5.890;2022-10-26T15:12:31;1.52;;;1.02;;
41556;SDS011;27720;51.992;5.890;2022-10-26T15:17:50;3.40;;;1.40;;
41556;SDS011;27720;51.992;5.890;2022-10-26T15:20:22;11.88;;;1.48;;
41556;SDS011;27720;51.992;5.890;2022-10-26T15:22:53;1.80;;;1.08;;
41556;SDS011;27720;51.992;5.890;2022-10-26T15:25:24;4.70;;;1.50;;
41556;SDS011;27720;51.992;5.890;2022-10-26T15:27:52;4.47;;;1.10;;
41556;SDS011;27720;51.992;5.890;2022-10-26T15:30:25;3.47;;;1.42;;
41556;SDS011;27720;51.992;5.890;2022-10-26T15:32:55;2.38;;;0.88;;
41556;SDS011;27720;51.992;5.890;2022-10-26T15:37:49;5.20;;;0.60;;
41556;SDS011;27720;51.992;5.890;2022-10-26T15:40:16;1.35;;;0.60;;
41556;SDS011;27720;51.992;5.890;2022-10-26T15:42:43;1.90;;;0.70;;
41556;SDS011;27720;51.992;5.890;2022-10-26T15:45:17;1.60;;;0.70;;
41556;SDS011;27720;51.992;5.890;2022-10-26T15:47:48;3.90;;;0.93;;
41556;SDS011;27720;51.992;5.890;2022-10-26T15:50:20;1.58;;;0.73;;
41556;SDS011;27720;51.992;5.890;2022-10-26T15:52:48;4.65;;;0.70;;
41556;SDS011;27720;51.992;5.890;2022-10-26T15:55:14;1.27;;;0.60;;
41556;SDS011;27720;51.992;5.890;2022-10-26T15:57:41;6.50;;;0.80;;
41556;SDS011;27720;51.992;5.890;2022-10-26T16:00:13;1.83;;;0.60;;
41556;SDS011;27720;51.992;5.890;2022-10-26T16:02:40;1.83;;;0.80;;
41556;SDS011;27720;51.992;5.890;2022-10-26T16:49:06;11.75;;;0.98;;
41556;SDS011;27720;51.992;5.890;2022-10-26T16:51:32;2.15;;;0.80;;
41556;SDS011;27720;51.992;5.890;2022-10-26T16:53:58;3.70;;;0.70;;
41556;SDS011;27720;51.992;5.890;2022-10-26T16:56:25;0.95;;;0.60;;
41556;SDS011;27720;51.992;5.890;2022-10-26T16:58:53;7.78;;;0.80;;
41556;SDS011;27720;51.992;5.890;2022-10-26T17:01:19;4.40;;;0.63;;
41556;SDS011;27720;51.992;5.890;2022-10-26T17:03:46;2.05;;;0.70;;
41556;SDS011;27720;51.992;5.890;2022-10-26T17:06:13;4.10;;;1.15;;
41556;SDS011;27720;51.992;5.890;2022-10-26T17:08:39;4.88;;;0.93;;
41556;SDS011;27720;51.992;5.890;2022-10-26T17:11:06;1.17;;;0.50;;
41556;SDS011;27720;51.992;5.890;2022-10-26T17:13:33;2.97;;;0.98;;
41556;SDS011;27720;51.992;5.890;2022-10-26T17:16:06;6.20;;;1.25;;
41556;SDS011;27720;51.992;5.890;2022-10-26T17:18:35;2.28;;;1.00;;
41556;SDS011;27720;51.992;5.890;2022-10-26T17:21:00;1.60;;;0.80;;
41556;SDS011;27720;51.992;5.890;2022-10-26T17:23:26;4.50;;;0.90;;
41556;SDS011;27720;51.992;5.890;2022-10-26T17:25:52;2.38;;;0.80;;
41556;SDS011;27720;51.992;5.890;2022-10-26T17:28:18;3.92;;;1.00;;
41556;SDS011;27720;51.992;5.890;2022-10-26T17:30:44;2.33;;;0.88;;
41556;SDS011;27720;51.992;5.890;2022-10-26T17:33:10;2.20;;;0.90;;
41556;SDS011;27720;51.992;5.890;2022-10-26T17:35:36;1.17;;;0.60;;
41556;SDS011;27720;51.992;5.890;2022-10-26T17:38:02;4.10;;;1.20;;
41556;SDS011;27720;51.992;5.890;2022-10-26T17:40:28;1.83;;;0.80;;
41556;SDS011;27720;51.992;5.890;2022-10-26T17:42:55;0.85;;;0.55;;
41556;SDS011;27720;51.992;5.890;2022-10-26T17:45:22;2.28;;;1.05;;
41556;SDS011;27720;51.992;5.890;2022-10-26T17:47:47;3.58;;;1.00;;
41556;SDS011;27720;51.992;5.890;2022-10-26T17:50:13;5.72;;;1.05;;
41556;SDS011;27720;51.992;5.890;2022-10-26T17:52:39;2.05;;;0.82;;
41556;SDS011;27720;51.992;5.890;2022-10-26T17:55:05;3.83;;;1.00;;
41556;SDS011;27720;51.992;5.890;2022-10-26T17:57:31;7.70;;;1.38;;
41556;SDS011;27720;51.992;5.890;2022-10-26T18:00:01;2.00;;;1.00;;
41556;SDS011;27720;51.992;5.890;2022-10-26T18:02:37;1.58;;;0.90;;
41556;SDS011;27720;51.992;5.890;2022-10-26T18:05:04;2.30;;;1.00;;
41556;SDS011;27720;51.992;5.890;2022-10-26T18:07:31;5.68;;;1.20;;